Time;durP1;ratioP1;P1;durP2;ratioP2;P2;SDS_P1;SDS_P2;PMS_P1;PMS_P2;Temp;Humidity;BMP_temperature;BMP_pressure;BME280_temperature;BME280_humidity;BME280_pressure;Samples;Min_cycle;Max_cycle;Signal;HPM_P1;HPM_P2
2021/10/08 00:01:48;;;;;;;6.85;5.55;;;16.20;91.20;;;;;;5070598;28;20036;-76
2021/10/08 00:04:14;;;;;;;6.70;5.38;;;16.20;91.10;;;;;;5052996;28;20028;-75
2021/10/08 00:06:40;;;;;;;7.65;5.35;;;16.20;91.20;;;;;;5070510;28;20025;-75
2021/10/08 00:09:06;;;;;;;7.50;5.80;;;16.20;91.20;;;;;;5071357;28;20444;-76
2021/10/08 00:11:31;;;;;;;8.85;5.40;;;16.10;91.10;;;;;;5056621;28;20107;-75
2021/10/08 00:13:57;;;;;;;6.22;5.18;;;16.10;91.00;;;;;;5070512;28;20032;-76
2021/10/08 00:16:23;;;;;;;6.45;5.05;;;16.10;91.10;;;;;;5070412;28;20024;-75
2021/10/08 00:18:49;;;;;;;6.93;5.13;;;16.10;91.10;;;;;;5071404;28;20089;-76
2021/10/08 00:21:15;;;;;;;5.50;4.88;;;16.00;91.10;;;;;;5074367;28;20033;-75
2021/10/08 00:23:40;;;;;;;6.13;4.93;;;16.00;91.10;;;;;;5074615;28;20021;-76
2021/10/08 00:26:06;;;;;;;6.45;5.30;;;16.00;91.20;;;;;;5073725;28;20044;-76
2021/10/08 00:28:33;;;;;;;5.07;4.57;;;16.00;91.20;;;;;;5073877;28;20036;-76
2021/10/08 00:30:59;;;;;;;6.88;5.03;;;16.00;91.20;;;;;;5074049;28;20028;-76
2021/10/08 00:33:24;;;;;;;7.85;5.53;;;16.00;91.20;;;;;;5073973;28;20020;-76
2021/10/08 00:35:50;;;;;;;6.63;5.35;;;15.90;91.20;;;;;;5075703;28;20097;-76
2021/10/08 00:38:16;;;;;;;7.00;5.47;;;16.00;91.20;;;;;;5075758;28;20117;-76
2021/10/08 00:40:44;;;;;;;5.72;5.10;;;16.00;91.20;;;;;;5073324;28;20035;-75
2021/10/08 00:43:11;;;;;;;7.38;5.43;;;16.00;91.20;;;;;;5063091;28;20024;-76
2021/10/08 00:45:37;;;;;;;6.90;5.97;;;15.90;91.10;;;;;;5073813;28;20016;-76
2021/10/08 00:48:06;;;;;;;8.68;5.60;;;15.90;91.10;;;;;;5074275;28;20043;-76
2021/10/08 00:50:58;;;;;;;6.72;5.18;;;15.90;91.20;;;;;;5073658;28;20055;-74
2021/10/08 00:53:23;;;;;;;5.90;5.30;;;15.80;91.00;;;;;;5069632;28;20037;-76
2021/10/08 00:55:51;;;;;;;6.20;5.13;;;15.80;91.30;;;;;;5073335;28;20039;-75
2021/10/08 00:58:20;;;;;;;6.20;5.60;;;15.80;91.10;;;;;;5073594;28;20030;-73
2021/10/08 01:00:48;;;;;;;7.13;5.32;;;15.80;91.20;;;;;;5073325;28;20095;-75
2021/10/08 01:03:14;;;;;;;7.53;5.80;;;15.80;91.20;;;;;;5073598;28;20016;-76
2021/10/08 01:05:41;;;;;;;6.60;5.55;;;15.80;91.20;;;;;;5072677;28;20078;-76
2021/10/08 01:08:07;;;;;;;7.32;5.40;;;15.70;91.00;;;;;;5059669;28;20458;-75
2021/10/08 01:10:34;;;;;;;6.65;4.95;;;15.70;91.50;;;;;;5072800;28;20099;-75
2021/10/08 01:13:01;;;;;;;7.22;5.40;;;15.70;91.10;;;;;;5073305;28;20032;-75
2021/10/08 01:15:26;;;;;;;8.48;4.90;;;15.60;91.10;;;;;;5073202;28;20048;-75
2021/10/08 01:17:53;;;;;;;6.13;4.80;;;15.60;91.10;;;;;;5073773;28;20052;-75
2021/10/08 01:20:20;;;;;;;5.47;4.68;;;15.60;91.10;;;;;;5073157;28;20036;-75
2021/10/08 01:22:46;;;;;;;5.70;4.38;;;15.70;91.20;;;;;;5073051;28;20066;-75
2021/10/08 01:25:11;;;;;;;5.93;4.88;;;15.70;91.10;;;;;;5072546;28;20048;-73
2021/10/08 01:27:37;;;;;;;6.25;5.10;;;15.70;91.10;;;;;;5072952;28;20032;-75
2021/10/08 01:30:03;;;;;;;7.00;5.13;;;15.70;91.20;;;;;;5073164;28;20033;-75
2021/10/08 01:32:30;;;;;;;6.03;5.03;;;15.70;91.10;;;;;;5077642;28;20102;-75
2021/10/08 01:34:56;;;;;;;6.63;4.78;;;15.70;91.10;;;;;;5065871;28;20025;-76
2021/10/08 01:37:22;;;;;;;5.18;4.60;;;15.70;91.20;;;;;;5071253;28;20065;-74
2021/10/08 01:39:48;;;;;;;7.68;4.88;;;15.70;91.10;;;;;;5083095;28;20049;-76
2021/10/08 01:42:15;;;;;;;6.80;4.55;;;15.80;91.20;;;;;;5072723;28;20501;-76
2021/10/08 01:44:41;;;;;;;6.28;4.70;;;15.80;91.00;;;;;;5072966;28;20028;-76
2021/10/08 01:47:08;;;;;;;6.63;4.53;;;15.80;91.00;;;;;;5072400;28;20032;-75
2021/10/08 01:49:34;;;;;;;6.63;4.28;;;15.80;90.80;;;;;;5072584;28;20043;-76
2021/10/08 01:52:00;;;;;;;5.07;4.10;;;15.80;91.00;;;;;;5072500;28;20493;-76
2021/10/08 01:54:26;;;;;;;6.05;4.07;;;15.80;90.90;;;;;;5072072;28;20048;-76
2021/10/08 01:56:51;;;;;;;6.93;4.55;;;15.80;90.90;;;;;;5073097;28;20142;-76
2021/10/08 01:59:18;;;;;;;5.60;4.28;;;15.80;90.80;;;;;;5072482;28;20021;-76
2021/10/08 02:01:44;;;;;;;7.57;4.40;;;15.80;90.70;;;;;;5072060;28;20016;-76
2021/10/08 02:04:10;;;;;;;6.40;3.90;;;15.80;90.70;;;;;;5072207;28;20405;-76
2021/10/08 02:06:35;;;;;;;5.38;3.78;;;15.80;90.60;;;;;;5077629;28;20078;-76
2021/10/08 02:09:02;;;;;;;5.40;3.72;;;15.80;90.60;;;;;;5074472;28;20037;-75
2021/10/08 02:11:27;;;;;;;6.22;3.65;;;15.70;90.40;;;;;;5059076;28;20035;-75
2021/10/08 02:13:53;;;;;;;7.50;4.00;;;15.70;90.70;;;;;;5071928;28;20032;-75
2021/10/08 02:16:20;;;;;;;7.53;3.75;;;15.70;90.70;;;;;;5071942;28;20028;-75
2021/10/08 02:18:50;;;;;;;5.68;3.15;;;15.70;90.40;;;;;;5072226;28;20024;-75
2021/10/08 02:21:16;;;;;;;5.30;3.63;;;15.70;90.70;;;;;;5071784;28;20111;-75
2021/10/08 02:23:42;;;;;;;6.32;3.38;;;15.70;90.70;;;;;;5058744;28;20023;-75
2021/10/08 02:26:08;;;;;;;4.35;3.47;;;15.80;90.50;;;;;;5071796;28;20052;-75
2021/10/08 02:28:34;;;;;;;5.15;3.60;;;15.70;90.40;;;;;;5071774;28;20469;-75
2021/10/08 02:30:59;;;;;;;4.47;3.70;;;15.70;90.30;;;;;;5071895;28;20036;-75
2021/10/08 02:33:25;;;;;;;5.72;3.42;;;15.70;90.30;;;;;;5071620;28;20059;-75
2021/10/08 02:35:50;;;;;;;5.70;3.58;;;15.60;90.20;;;;;;5071883;28;20028;-75
2021/10/08 02:38:17;;;;;;;7.68;3.10;;;15.60;90.30;;;;;;5071371;28;20040;-76
2021/10/08 02:40:44;;;;;;;5.72;3.42;;;15.60;90.30;;;;;;5071474;28;20116;-75
2021/10/08 02:43:09;;;;;;;7.47;3.10;;;15.60;90.30;;;;;;5071300;28;20031;-75
2021/10/08 02:45:35;;;;;;;4.95;3.13;;;15.60;90.30;;;;;;5071729;28;20029;-75
2021/10/08 02:48:01;;;;;;;4.40;2.65;;;15.60;90.30;;;;;;5064884;28;20044;-75
2021/10/08 02:50:27;;;;;;;7.35;3.20;;;15.50;90.10;;;;;;5072101;28;20114;-76
2021/10/08 02:52:53;;;;;;;8.45;3.28;;;15.60;90.30;;;;;;5071275;28;20039;-75
2021/10/08 02:55:19;;;;;;;5.50;2.95;;;15.60;90.20;;;;;;5078554;28;20028;-75
2021/10/08 02:57:44;;;;;;;5.50;3.25;;;15.60;90.20;;;;;;5071390;28;20400;-75
2021/10/08 03:00:11;;;;;;;4.70;3.10;;;15.60;90.10;;;;;;5071777;28;20024;-75
2021/10/08 03:02:37;;;;;;;5.63;3.22;;;15.60;90.00;;;;;;5071668;28;20021;-75
2021/10/08 03:05:04;;;;;;;5.35;3.10;;;15.50;90.00;;;;;;5070801;28;20447;-75
2021/10/08 03:07:29;;;;;;;7.07;2.90;;;15.60;90.30;;;;;;5071126;28;20097;-75
2021/10/08 03:09:55;;;;;;;4.68;2.85;;;15.60;90.10;;;;;;5071218;28;20021;-75
2021/10/08 03:12:21;;;;;;;3.92;3.00;;;15.60;90.00;;;;;;5055154;28;20028;-75
2021/10/08 03:14:47;;;;;;;4.75;3.00;;;15.60;90.00;;;;;;5071867;28;20017;-75
2021/10/08 03:17:13;;;;;;;5.20;2.45;;;15.60;90.30;;;;;;5071395;28;20508;-75
2021/10/08 03:19:39;;;;;;;5.18;3.08;;;15.60;89.80;;;;;;5075471;28;20012;-75
2021/10/08 03:22:05;;;;;;;5.38;2.70;;;15.50;89.70;;;;;;5071237;28;20194;-73
2021/10/08 03:24:31;;;;;;;5.45;2.53;;;15.50;90.00;;;;;;5071068;28;20027;-76
2021/10/08 03:26:57;;;;;;;5.43;2.13;;;15.50;89.50;;;;;;5058089;28;20037;-75
2021/10/08 03:29:22;;;;;;;5.13;2.13;;;15.50;89.20;;;;;;5070956;28;20024;-75
2021/10/08 03:31:48;;;;;;;6.25;2.40;;;15.40;89.10;;;;;;5070893;28;20504;-76
2021/10/08 03:34:14;;;;;;;2.97;2.08;;;15.40;89.10;;;;;;5070699;28;20090;-76
2021/10/08 03:36:51;;;;;;;5.22;2.22;;;15.40;89.40;;;;;;5071021;28;20111;-76
2021/10/08 03:39:23;;;;;;;4.10;2.08;;;15.40;89.50;;;;;;5070855;28;20045;-75
2021/10/08 03:41:49;;;;;;;5.43;2.17;;;15.40;89.20;;;;;;5056002;28;20401;-75
2021/10/08 03:44:16;;;;;;;6.63;2.53;;;15.40;88.80;;;;;;5070970;28;20095;-75
2021/10/08 03:46:48;;;;;;;4.18;1.88;;;15.30;89.20;;;;;;5070644;28;20051;-75
2021/10/08 03:49:15;;;;;;;3.30;2.05;;;15.40;89.60;;;;;;5070497;28;20081;-75
2021/10/08 03:51:46;;;;;;;4.10;1.92;;;15.50;89.60;;;;;;5070924;28;20445;-75
2021/10/08 03:54:13;;;;;;;6.78;2.25;;;15.50;89.20;;;;;;5072250;28;20051;-75
2021/10/08 03:56:40;;;;;;;4.40;1.90;;;15.50;89.00;;;;;;5074281;28;20029;-75
2021/10/08 03:59:06;;;;;;;5.10;2.03;;;15.50;88.70;;;;;;5074679;28;20435;-75
2021/10/08 04:01:31;;;;;;;3.53;1.80;;;15.50;88.60;;;;;;5079617;28;20488;-75
2021/10/08 04:03:57;;;;;;;3.85;1.88;;;15.40;88.50;;;;;;5059287;28;20094;-75
2021/10/08 04:06:23;;;;;;;4.97;1.80;;;15.40;88.70;;;;;;5061892;28;20029;-75
2021/10/08 04:08:49;;;;;;;5.32;1.50;;;15.40;88.70;;;;;;5076740;28;20043;-75
2021/10/08 04:11:14;;;;;;;4.25;1.73;;;15.40;88.00;;;;;;5074141;28;20486;-75
2021/10/08 04:13:40;;;;;;;3.97;1.60;;;15.30;88.30;;;;;;5060188;28;20056;-75
2021/10/08 04:16:06;;;;;;;5.45;2.05;;;15.30;88.00;;;;;;5073794;28;20059;-75
2021/10/08 04:18:33;;;;;;;7.22;1.70;;;15.20;88.00;;;;;;5073389;28;20077;-77
2021/10/08 04:20:58;;;;;;;5.40;2.08;;;15.20;88.00;;;;;;5074670;28;20050;-75
2021/10/08 04:23:24;;;;;;;5.15;1.85;;;15.10;88.40;;;;;;5067371;28;20017;-75
2021/10/08 04:25:50;;;;;;;5.20;1.80;;;15.20;88.90;;;;;;5073558;28;20455;-76
2021/10/08 04:28:15;;;;;;;4.53;1.73;;;15.20;89.00;;;;;;5073621;28;20048;-75
2021/10/08 04:30:41;;;;;;;4.57;1.75;;;15.20;88.30;;;;;;5073383;28;20431;-75
2021/10/08 04:33:18;;;;;;;6.80;1.90;;;15.10;88.20;;;;;;5073538;28;20031;-75
2021/10/08 04:35:44;;;;;;;2.95;1.60;;;15.10;88.50;;;;;;5075476;28;20104;-75
2021/10/08 04:38:10;;;;;;;3.45;1.70;;;15.10;89.10;;;;;;5061709;28;20132;-75
2021/10/08 04:40:35;;;;;;;5.68;1.80;;;15.10;88.80;;;;;;5073487;28;20020;-75
2021/10/08 04:43:01;;;;;;;4.65;1.90;;;15.10;88.40;;;;;;5073560;28;20024;-75
2021/10/08 04:45:27;;;;;;;3.80;1.60;;;15.10;88.60;;;;;;5056192;28;20032;-75
2021/10/08 04:47:53;;;;;;;4.63;1.75;;;15.10;88.40;;;;;;5073640;28;20037;-75
2021/10/08 04:50:18;;;;;;;3.65;1.90;;;15.00;88.50;;;;;;5073450;28;20396;-75
2021/10/08 04:52:45;;;;;;;4.35;2.00;;;15.00;87.90;;;;;;5073213;28;20512;-75
2021/10/08 04:55:10;;;;;;;3.15;1.40;;;14.90;88.20;;;;;;5073571;28;20074;-75
2021/10/08 04:57:36;;;;;;;5.32;1.80;;;14.80;88.20;;;;;;5073311;28;20528;-75
2021/10/08 05:00:06;;;;;;;7.40;1.98;;;14.80;88.30;;;;;;5069316;28;20056;-75
2021/10/08 05:02:32;;;;;;;3.25;1.60;;;14.70;88.30;;;;;;5058721;28;20069;-76
2021/10/08 05:04:58;;;;;;;4.63;1.60;;;14.60;88.40;;;;;;5072217;28;20123;-75
2021/10/08 05:07:24;;;;;;;7.32;2.97;;;14.60;88.60;;;;;;5072115;28;20036;-76
2021/10/08 05:09:49;;;;;;;6.82;2.05;;;14.60;88.80;;;;;;5073289;28;20047;-75
2021/10/08 05:12:15;;;;;;;6.57;3.88;;;14.60;88.60;;;;;;5057167;28;20028;-76
2021/10/08 05:14:41;;;;;;;4.00;2.05;;;14.50;88.70;;;;;;5072812;28;20052;-76
2021/10/08 05:17:07;;;;;;;6.60;2.15;;;14.50;88.90;;;;;;5071947;28;20701;-76
2021/10/08 05:19:32;;;;;;;5.70;1.90;;;14.50;89.00;;;;;;5072337;28;20370;-76
2021/10/08 05:21:58;;;;;;;3.40;1.88;;;14.40;88.70;;;;;;5071581;28;20032;-75
2021/10/08 05:24:24;;;;;;;7.40;2.40;;;14.40;89.30;;;;;;5071753;28;20016;-74
2021/10/08 05:26:50;;;;;;;7.28;2.10;;;14.40;88.80;;;;;;5072431;28;20033;-75
2021/10/08 05:29:16;;;;;;;6.40;2.45;;;14.30;89.10;;;;;;5071346;28;20039;-76
2021/10/08 05:31:42;;;;;;;3.58;1.88;;;14.30;88.80;;;;;;5071308;28;20020;-75
2021/10/08 05:34:08;;;;;;;5.78;2.00;;;14.30;89.20;;;;;;5072980;28;20037;-75
2021/10/08 05:36:34;;;;;;;5.57;2.58;;;14.30;89.80;;;;;;5071262;28;20040;-76
2021/10/08 05:39:00;;;;;;;6.63;2.22;;;14.30;88.80;;;;;;5062212;28;20111;-75
2021/10/08 05:41:26;;;;;;;4.03;1.83;;;14.20;89.00;;;;;;5071558;28;20493;-75
2021/10/08 05:43:52;;;;;;;6.82;2.10;;;14.20;89.00;;;;;;5071252;28;20012;-75
2021/10/08 05:46:17;;;;;;;4.95;1.73;;;14.20;89.10;;;;;;5071407;28;20035;-76
2021/10/08 05:48:43;;;;;;;7.22;2.00;;;14.20;89.20;;;;;;5071062;28;20055;-76
2021/10/08 05:51:09;;;;;;;3.88;2.08;;;14.20;89.00;;;;;;5063854;28;20508;-75
2021/10/08 05:53:34;;;;;;;5.60;2.20;;;14.20;89.00;;;;;;5071017;28;20044;-76
2021/10/08 05:56:00;;;;;;;6.28;1.95;;;14.10;89.00;;;;;;5071419;28;20059;-75
2021/10/08 05:58:26;;;;;;;4.95;2.00;;;14.10;88.90;;;;;;5071334;28;20028;-75
2021/10/08 06:00:51;;;;;;;3.30;1.90;;;14.20;89.30;;;;;;5071297;28;20025;-76
2021/10/08 06:03:17;;;;;;;4.68;2.05;;;14.10;88.70;;;;;;5071745;28;20040;-75
2021/10/08 06:05:42;;;;;;;4.07;1.88;;;14.10;88.90;;;;;;5071794;28;20599;-76
2021/10/08 06:08:09;;;;;;;11.52;2.15;;;14.10;88.70;;;;;;5071227;28;20033;-75
2021/10/08 06:10:35;;;;;;;3.70;1.83;;;14.10;88.60;;;;;;5071468;28;20032;-74
2021/10/08 06:13:01;;;;;;;5.80;1.98;;;14.10;88.80;;;;;;5053292;28;20040;-74
2021/10/08 06:15:27;;;;;;;7.18;1.90;;;14.10;88.40;;;;;;5071195;28;20033;-74
2021/10/08 06:17:52;;;;;;;4.50;2.05;;;14.00;88.40;;;;;;5072106;28;20563;-74
2021/10/08 06:20:18;;;;;;;3.28;1.73;;;14.00;88.90;;;;;;5079232;28;20107;-74
2021/10/08 06:22:46;;;;;;;5.63;2.00;;;14.10;88.70;;;;;;5073016;28;20028;-77
2021/10/08 06:25:12;;;;;;;5.10;1.90;;;14.10;88.70;;;;;;5071148;28;20020;-74
2021/10/08 06:27:39;;;;;;;4.95;1.77;;;14.10;88.90;;;;;;5043326;28;20043;-75
2021/10/08 06:30:06;;;;;;;4.65;2.30;;;14.20;88.80;;;;;;5078556;28;20028;-76
2021/10/08 06:32:32;;;;;;;5.35;2.30;;;14.10;88.40;;;;;;5081516;28;20096;-77
2021/10/08 06:34:57;;;;;;;5.32;1.88;;;14.10;88.30;;;;;;5071429;28;20032;-76
2021/10/08 06:37:23;;;;;;;4.43;2.38;;;14.20;89.50;;;;;;5065268;28;20481;-76
2021/10/08 06:39:48;;;;;;;3.35;1.63;;;14.40;88.80;;;;;;5070925;28;20048;-76
2021/10/08 06:42:15;;;;;;;7.78;2.20;;;14.50;88.30;;;;;;5071105;28;20024;-76
2021/10/08 06:44:41;;;;;;;6.60;1.95;;;14.60;87.50;;;;;;5071294;28;20032;-75
2021/10/08 06:47:07;;;;;;;3.67;1.80;;;14.70;87.80;;;;;;5070798;28;20029;-76
2021/10/08 06:49:33;;;;;;;4.28;1.90;;;14.80;87.10;;;;;;5070496;28;20098;-75
2021/10/08 06:52:00;;;;;;;7.00;2.03;;;14.80;86.50;;;;;;5070720;28;20017;-74
2021/10/08 06:54:25;;;;;;;4.68;1.70;;;14.70;85.60;;;;;;5054420;28;20028;-75
2021/10/08 06:56:51;;;;;;;4.50;1.83;;;14.80;87.00;;;;;;5071093;28;20385;-73
2021/10/08 06:59:17;;;;;;;4.07;2.08;;;15.00;86.00;;;;;;5070788;28;20471;-74
2021/10/08 07:01:42;;;;;;;5.97;1.88;;;15.10;85.50;;;;;;5057149;28;20059;-76
2021/10/08 07:04:08;;;;;;;5.38;1.70;;;15.30;86.10;;;;;;5057566;28;20032;-76
2021/10/08 07:06:33;;;;;;;4.70;1.88;;;15.50;85.30;;;;;;5085392;28;20451;-75
2021/10/08 07:08:59;;;;;;;5.03;1.75;;;15.60;84.90;;;;;;5057132;28;20044;-76
2021/10/08 07:11:25;;;;;;;4.60;2.05;;;15.80;84.70;;;;;;5069732;28;20123;-76
2021/10/08 07:13:52;;;;;;;5.47;1.95;;;16.00;83.80;;;;;;5056819;28;20522;-76
2021/10/08 07:16:18;;;;;;;4.43;1.92;;;16.10;83.30;;;;;;5070770;28;20477;-76
2021/10/08 07:18:49;;;;;;;5.78;1.90;;;16.10;82.40;;;;;;5070778;28;20031;-76
2021/10/08 07:21:15;;;;;;;4.47;1.90;;;16.30;83.10;;;;;;5070930;28;20016;-76
2021/10/08 07:23:45;;;;;;;5.78;1.85;;;16.50;82.80;;;;;;5070930;28;20021;-76
2021/10/08 07:26:11;;;;;;;5.45;2.05;;;16.70;81.00;;;;;;5070470;28;20060;-76
2021/10/08 07:28:38;;;;;;;5.22;2.17;;;16.90;81.80;;;;;;5070787;28;20413;-74
2021/10/08 07:31:04;;;;;;;5.35;1.92;;;17.10;80.90;;;;;;5074659;28;20027;-76
2021/10/08 07:33:30;;;;;;;3.85;1.42;;;17.30;81.10;;;;;;5075016;28;20036;-75
2021/10/08 07:35:55;;;;;;;4.47;1.83;;;17.50;78.00;;;;;;5075695;28;20082;-76
2021/10/08 07:38:21;;;;;;;4.15;2.05;;;17.60;78.50;;;;;;5069603;28;20040;-73
2021/10/08 07:40:47;;;;;;;4.32;2.08;;;17.80;79.30;;;;;;5074222;28;20515;-72
2021/10/08 07:43:12;;;;;;;4.63;2.03;;;17.90;76.60;;;;;;5074239;28;20032;-72
2021/10/08 07:45:38;;;;;;;5.70;2.10;;;17.80;75.00;;;;;;5074590;28;20052;-72
2021/10/08 07:48:04;;;;;;;3.28;1.70;;;17.70;75.50;;;;;;5061314;28;20045;-72
2021/10/08 07:50:30;;;;;;;4.93;1.73;;;17.80;75.10;;;;;;5066940;28;20028;-64
2021/10/08 07:52:55;;;;;;;3.42;1.80;;;18.10;77.30;;;;;;5070375;28;20187;-64
2021/10/08 07:55:21;;;;;;;4.07;1.90;;;18.40;73.40;;;;;;5056660;28;20029;-65
2021/10/08 07:57:46;;;;;;;3.72;1.85;;;18.50;72.20;;;;;;5073395;28;20074;-64
2021/10/08 08:00:13;;;;;;;5.70;1.65;;;18.60;73.30;;;;;;5074076;28;20027;-64
2021/10/08 08:02:40;;;;;;;4.88;2.00;;;19.20;74.80;;;;;;5060264;28;20142;-64
2021/10/08 08:05:06;;;;;;;3.97;1.45;;;19.50;70.70;;;;;;5073265;28;20035;-65
2021/10/08 08:07:32;;;;;;;4.45;1.55;;;19.80;70.30;;;;;;5072328;28;20142;-65
2021/10/08 08:09:57;;;;;;;6.65;1.60;;;19.70;67.50;;;;;;5072956;28;20127;-64
2021/10/08 08:12:23;;;;;;;2.58;1.23;;;19.80;69.70;;;;;;5073065;28;20021;-64
2021/10/08 08:14:48;;;;;;;4.28;1.60;;;20.00;70.20;;;;;;5073767;28;20416;-65
2021/10/08 08:17:14;;;;;;;3.17;1.50;;;20.20;67.30;;;;;;5072256;28;20036;-64
2021/10/08 08:19:42;;;;;;;3.25;1.50;;;20.10;65.50;;;;;;5073355;28;20515;-64
2021/10/08 08:22:08;;;;;;;2.45;1.50;;;20.00;66.90;;;;;;5073636;28;20115;-68
2021/10/08 08:24:35;;;;;;;4.28;1.70;;;20.00;64.60;;;;;;5073315;28;20828;-69
2021/10/08 08:27:00;;;;;;;3.25;1.48;;;19.80;65.60;;;;;;5073676;28;20511;-68
2021/10/08 08:29:26;;;;;;;3.10;1.40;;;19.80;65.60;;;;;;5073267;28;20103;-68
2021/10/08 08:31:52;;;;;;;3.55;1.60;;;20.20;65.10;;;;;;5073419;28;20055;-68
2021/10/08 08:34:18;;;;;;;3.65;1.20;;;20.30;64.00;;;;;;5073481;28;20032;-69
2021/10/08 08:36:43;;;;;;;4.22;1.45;;;20.30;63.90;;;;;;5073465;28;20100;-68
2021/10/08 08:39:10;;;;;;;2.75;1.35;;;20.50;63.80;;;;;;5072507;28;20524;-69
2021/10/08 08:41:38;;;;;;;3.17;1.40;;;20.70;64.10;;;;;;5072822;28;20037;-70
2021/10/08 08:44:04;;;;;;;3.38;1.42;;;20.80;61.40;;;;;;5073411;28;20017;-65
2021/10/08 08:46:30;;;;;;;2.25;1.10;;;20.80;63.30;;;;;;5073344;28;20117;-64
2021/10/08 08:48:56;;;;;;;2.30;1.30;;;21.10;63.70;;;;;;5072622;28;20474;-64
2021/10/08 08:51:25;;;;;;;2.67;1.60;;;21.60;64.20;;;;;;5073095;28;20044;-64
2021/10/08 08:53:57;;;;;;;3.03;1.50;;;22.00;65.10;;;;;;5073392;28;20103;-65
2021/10/08 08:56:23;;;;;;;2.03;1.30;;;22.30;60.50;;;;;;5073279;28;20050;-65
2021/10/08 08:58:58;;;;;;;2.38;1.23;;;21.60;60.10;;;;;;5072888;28;20382;-64
2021/10/08 09:01:23;;;;;;;3.17;1.98;;;21.50;61.40;;;;;;5072564;28;20035;-67
2021/10/08 09:04:06;;;;;;;2.65;1.90;;;21.60;61.30;;;;;;5073001;28;20029;-65
2021/10/08 09:06:37;;;;;;;4.60;1.40;;;21.60;61.00;;;;;;5055474;28;20035;-65
2021/10/08 09:09:20;;;;;;;2.70;1.20;;;21.80;62.00;;;;;;5073155;28;20040;-66
2021/10/08 09:11:47;;;;;;;2.97;1.30;;;22.20;62.10;;;;;;5072001;28;20416;-66
2021/10/08 09:14:14;;;;;;;1.92;1.23;;;22.30;59.90;;;;;;5073032;28;20104;-66
2021/10/08 09:17:06;;;;;;;4.35;1.35;;;22.20;58.10;;;;;;5072736;28;20056;-65
2021/10/08 09:20:06;;;;;;;2.47;1.30;;;22.40;62.40;;;;;;5072751;28;20020;-65
2021/10/08 09:22:40;;;;;;;2.25;1.20;;;22.40;60.00;;;;;;5071730;28;20036;-65
2021/10/08 09:25:15;;;;;;;2.85;1.33;;;22.40;59.00;;;;;;5072551;28;20032;-66
2021/10/08 09:27:50;;;;;;;2.30;1.33;;;22.70;61.70;;;;;;5057275;28;20037;-66
2021/10/08 09:30:16;;;;;;;1.80;1.10;;;22.70;56.40;;;;;;5072855;28;20403;-66
2021/10/08 09:32:48;;;;;;;2.67;1.23;;;22.50;55.90;;;;;;5072036;28;20496;-65
2021/10/08 09:35:16;;;;;;;1.70;1.10;;;22.40;58.50;;;;;;5072468;28;20036;-66
2021/10/08 09:37:45;;;;;;;2.03;1.10;;;22.60;57.00;;;;;;5060348;28;20020;-64
2021/10/08 09:40:43;;;;;;;1.75;0.88;;;23.10;59.00;;;;;;5065929;28;20048;-64
2021/10/08 09:43:11;;;;;;;1.80;0.95;;;23.20;58.80;;;;;;5071429;28;20031;-63
2021/10/08 09:45:50;;;;;;;3.97;1.33;;;23.00;55.40;;;;;;5055957;28;20477;-63
2021/10/08 09:48:16;;;;;;;1.95;0.90;;;23.20;58.10;;;;;;5069453;28;20033;-69
2021/10/08 09:51:00;;;;;;;3.03;1.13;;;22.90;54.40;;;;;;5071864;28;20024;-68
2021/10/08 09:53:26;;;;;;;2.10;1.00;;;22.90;57.80;;;;;;5070509;28;20029;-74
2021/10/08 09:55:53;;;;;;;2.10;1.00;;;22.80;54.10;;;;;;5071648;28;20032;-73
2021/10/08 09:58:20;;;;;;;1.63;0.90;;;22.80;55.60;;;;;;5071923;28;20032;-71
2021/10/08 10:00:57;;;;;;;1.83;0.90;;;23.20;56.10;;;;;;5072013;28;20036;-70
2021/10/08 10:03:23;;;;;;;1.75;1.00;;;23.50;56.00;;;;;;5070790;28;20612;-73
2021/10/08 10:05:49;;;;;;;1.48;0.85;;;23.30;53.50;;;;;;5071822;28;20157;-73
2021/10/08 10:08:15;;;;;;;1.65;0.90;;;23.50;55.30;;;;;;5071344;28;20115;-73
2021/10/08 10:10:41;;;;;;;1.77;1.00;;;23.80;54.50;;;;;;5071457;28;20035;-73
2021/10/08 10:13:09;;;;;;;1.20;0.80;;;23.90;52.30;;;;;;5071323;28;20435;-73
2021/10/08 10:15:36;;;;;;;1.95;1.00;;;23.90;52.30;;;;;;5070990;28;20024;-71
2021/10/08 10:18:19;;;;;;;1.55;0.88;;;23.90;52.20;;;;;;5056975;28;20546;-72
2021/10/08 10:20:49;;;;;;;1.90;0.98;;;24.10;55.40;;;;;;5070096;28;20028;-73
2021/10/08 10:23:17;;;;;;;2.08;1.00;;;23.90;51.30;;;;;;5071413;28;20485;-73
2021/10/08 10:25:44;;;;;;;1.92;1.00;;;23.90;50.80;;;;;;5072289;28;20106;-70
2021/10/08 10:28:10;;;;;;;1.85;0.90;;;23.90;51.00;;;;;;5080470;28;20540;-72
2021/10/08 10:30:38;;;;;;;1.67;0.90;;;23.90;53.00;;;;;;5071255;28;20024;-68
2021/10/08 10:33:04;;;;;;;2.13;1.02;;;24.20;51.90;;;;;;5074406;28;20063;-69
2021/10/08 10:35:49;;;;;;;1.70;1.30;;;24.30;50.80;;;;;;5082973;28;20032;-69
2021/10/08 10:38:29;;;;;;;1.60;1.05;;;24.50;52.50;;;;;;5072581;28;20131;-69
2021/10/08 10:41:09;;;;;;;2.28;1.02;;;24.70;54.10;;;;;;5081681;28;20031;-68
2021/10/08 10:43:39;;;;;;;2.58;1.10;;;25.00;53.80;;;;;;5076477;28;20032;-68
2021/10/08 10:52:03;;;;;;;2.50;1.50;;;24.60;49.90;;;;;;5072455;28;20032;-70
2021/10/08 10:54:37;;;;;;;2.05;1.50;;;24.80;52.40;;;;;;5072970;28;20029;-68
2021/10/08 10:57:10;;;;;;;2.13;1.50;;;24.70;48.20;;;;;;5081072;28;20062;-71
2021/10/08 10:59:36;;;;;;;1.83;1.20;;;24.40;46.50;;;;;;5077364;28;20028;-69
2021/10/08 11:04:32;;;;;;;2.58;0.90;;;23.90;47.50;;;;;;5070897;28;20029;-72
2021/10/08 11:07:06;;;;;;;1.65;1.10;;;23.80;46.30;;;;;;5071294;28;20028;-70
2021/10/08 11:09:32;;;;;;;1.35;0.88;;;23.80;48.40;;;;;;5071210;28;20036;-68
2021/10/08 11:12:36;;;;;;;2.20;1.02;;;23.90;46.50;;;;;;5071456;28;20032;-69
2021/10/08 11:15:18;;;;;;;2.17;1.15;;;24.20;51.00;;;;;;5071701;28;20028;-68
2021/10/08 11:17:55;;;;;;;1.70;0.88;;;24.60;51.00;;;;;;5072864;28;20047;-68
2021/10/08 11:20:33;;;;;;;2.42;1.23;;;24.90;46.50;;;;;;5070956;28;20039;-69
2021/10/08 11:23:05;;;;;;;3.03;0.90;;;25.10;48.80;;;;;;5070350;28;20043;-72
2021/10/08 11:25:50;;;;;;;3.08;1.15;;;24.90;43.30;;;;;;5074376;28;20025;-73
2021/10/08 11:28:17;;;;;;;1.30;0.80;;;24.70;46.30;;;;;;5073756;28;20033;-73
2021/10/08 11:30:49;;;;;;;1.45;0.80;;;25.10;47.10;;;;;;5070328;28;20036;-72
2021/10/08 11:33:15;;;;;;;1.20;0.70;;;25.50;47.30;;;;;;5079093;28;20029;-71
2021/10/08 11:35:40;;;;;;;2.10;0.90;;;25.70;44.90;;;;;;5075699;28;20024;-71
2021/10/08 11:38:06;;;;;;;1.92;0.88;;;25.90;44.70;;;;;;5070116;28;20162;-71
2021/10/08 11:40:43;;;;;;;3.00;1.40;;;25.90;42.50;;;;;;5073969;28;20497;-73
2021/10/08 11:43:27;;;;;;;1.95;1.10;;;26.00;44.20;;;;;;5075493;28;20508;-70
2021/10/08 11:46:07;;;;;;;1.98;0.80;;;26.40;46.10;;;;;;5076391;28;20493;-73
2021/10/08 11:48:40;;;;;;;1.70;0.80;;;26.70;42.30;;;;;;5069685;28;20021;-72
2021/10/08 11:51:08;;;;;;;2.20;0.90;;;26.90;42.80;;;;;;5066073;28;20501;-72
2021/10/08 11:53:59;;;;;;;1.52;0.80;;;27.00;40.50;;;;;;5070163;28;20097;-72
2021/10/08 11:56:27;;;;;;;1.23;0.70;;;27.10;45.10;;;;;;5066245;28;20093;-73
2021/10/08 11:58:58;;;;;;;1.48;0.80;;;27.10;40.30;;;;;;5070112;28;20124;-73
2021/10/08 12:01:30;;;;;;;1.52;0.77;;;27.40;41.90;;;;;;5069015;28;20100;-71
2021/10/08 12:03:56;;;;;;;2.03;0.70;;;27.60;39.70;;;;;;5070168;28;20077;-72
2021/10/08 12:06:30;;;;;;;2.03;0.90;;;28.00;40.70;;;;;;5070569;28;20029;-72
2021/10/08 12:09:02;;;;;;;2.05;1.35;;;28.30;39.80;;;;;;5069819;28;20116;-72
2021/10/08 12:11:29;;;;;;;2.33;1.00;;;28.50;36.80;;;;;;5069198;28;20025;-73
2021/10/08 12:13:55;;;;;;;2.28;1.15;;;28.50;36.30;;;;;;5070084;28;20029;-73
2021/10/08 12:16:46;;;;;;;1.20;0.80;;;29.00;35.70;;;;;;5072896;28;20021;-74
2021/10/08 12:19:13;;;;;;;3.08;1.10;;;30.10;40.70;;;;;;5073876;28;20119;-72
2021/10/08 12:21:41;;;;;;;2.10;0.95;;;31.90;34.00;;;;;;5073615;28;20017;-72
2021/10/08 12:24:22;;;;;;;1.60;0.90;;;33.20;32.00;;;;;;5074126;28;20089;-72
2021/10/08 12:26:54;;;;;;;3.22;0.85;;;34.40;31.70;;;;;;5073899;28;20035;-72
2021/10/08 12:29:20;;;;;;;1.42;0.60;;;36.30;31.30;;;;;;5073394;28;20451;-72
2021/10/08 12:31:57;;;;;;;1.23;0.70;;;36.60;28.90;;;;;;5073009;28;20032;-72
2021/10/08 12:34:45;;;;;;;1.85;0.90;;;37.60;28.40;;;;;;5072987;28;20039;-73
2021/10/08 12:37:32;;;;;;;2.00;0.75;;;37.60;27.40;;;;;;5073566;28;20025;-72
2021/10/08 12:40:01;;;;;;;2.10;0.90;;;38.50;27.10;;;;;;5073169;28;20048;-73
2021/10/08 12:42:29;;;;;;;1.48;0.90;;;39.50;24.80;;;;;;5073382;28;20024;-73
2021/10/08 12:44:59;;;;;;;1.75;0.90;;;39.50;21.20;;;;;;5059619;28;20024;-73
2021/10/08 12:47:26;;;;;;;1.23;0.90;;;38.60;22.30;;;;;;5073123;28;20032;-74
2021/10/08 12:50:02;;;;;;;1.02;0.73;;;38.60;22.50;;;;;;5073253;28;20028;-73
2021/10/08 12:52:41;;;;;;;1.30;0.80;;;39.60;24.50;;;;;;5073130;28;20017;-72
2021/10/08 12:55:10;;;;;;;1.48;0.80;;;39.60;22.00;;;;;;5072353;28;20028;-72
2021/10/08 12:57:55;;;;;;;2.00;0.98;;;38.80;20.70;;;;;;5073260;28;20095;-73
2021/10/08 13:00:31;;;;;;;1.50;0.80;;;39.80;21.50;;;;;;5070629;28;20085;-72
2021/10/08 13:02:57;;;;;;;1.55;1.00;;;40.20;21.60;;;;;;5072534;28;20070;-73